createdAt,value
2018-04-30T05:13:48.666Z,23.8
2018-04-30T05:14:38.234Z,23.8
2018-04-30T05:15:29.079Z,23.8
2018-04-30T05:16:18.578Z,23.8
2018-04-30T05:17:09.271Z,23.8
2018-04-30T05:17:59.271Z,23.8
2018-04-30T05:18:49.054Z,23.8
2018-04-30T05:19:39.473Z,23.8
2018-04-30T05:20:29.175Z,23.8
2018-04-30T05:21:18.984Z,23.8
2018-04-30T05:22:09.036Z,23.8
2018-04-30T05:22:59.664Z,23.8
2018-04-30T05:23:49.695Z,23.8
2018-04-30T05:24:39.503Z,23.8
2018-04-30T05:25:29.903Z,23.8
2018-04-30T05:26:19.650Z,23.8
2018-04-30T05:27:09.987Z,23.8
2018-04-30T05:27:59.506Z,23.8
2018-04-30T05:28:50.212Z,23.8
2018-04-30T05:29:39.702Z,23.8
2018-04-30T05:30:30.236Z,23.8
2018-04-30T05:31:19.850Z,23.8
2018-04-30T05:32:10.204Z,23.8
2018-04-30T05:32:59.598Z,23.8
2018-04-30T05:33:50.893Z,23.8
2018-04-30T05:34:39.720Z,23.8
2018-04-30T05:35:30.164Z,23.7
2018-04-30T05:36:20.709Z,23.8
2018-04-30T05:37:10.457Z,23.6
2018-04-30T05:37:59.948Z,26.8
2018-04-30T05:38:50.051Z,27.8
2018-04-30T05:39:40.666Z,30.3
2018-04-30T05:40:30.150Z,31.6
2018-04-30T05:41:20.353Z,31.8
2018-04-30T05:42:10.893Z,30.6
2018-04-30T05:43:00.670Z,29.2
2018-04-30T05:43:51.020Z,28.4
2018-04-30T05:44:40.510Z,28.1
2018-04-30T05:45:30.838Z,28
2018-04-30T05:46:20.355Z,27.9
2018-04-30T05:47:10.378Z,27.9
2018-04-30T05:48:01.346Z,27.9
2018-04-30T05:48:50.810Z,27.9
2018-04-30T05:51:21.023Z,27.8
2018-04-30T05:52:11.676Z,27.7
2018-04-30T05:53:01.378Z,27.6
2018-04-30T05:53:51.478Z,27.6
2018-04-30T05:54:41.829Z,27.1
2018-04-30T05:55:31.913Z,29.6
2018-04-30T05:56:21.659Z,30.8
2018-04-30T05:57:12.292Z,32.3
2018-04-30T05:58:02.075Z,33.1
2018-04-30T05:58:52.411Z,33.3
2018-04-30T05:59:42.465Z,33.3
2018-04-30T06:00:32.916Z,33.4
2018-04-30T06:01:22.139Z,33.5
2018-04-30T06:02:12.107Z,33.7
2018-04-30T06:03:02.463Z,33.9
2018-04-30T06:03:52.817Z,33.9
2018-04-30T06:04:42.007Z,34
2018-04-30T06:05:32.652Z,34.1
2018-04-30T06:06:22.455Z,34.2
2018-04-30T06:07:12.267Z,34.2
2018-04-30T06:08:02.852Z,34.3
2018-04-30T06:08:52.669Z,34.3
2018-04-30T06:09:42.992Z,34.3
2018-04-30T06:10:33.302Z,34.4
2018-04-30T06:11:23.164Z,34.4
2018-04-30T06:12:13.432Z,34.5
2018-04-30T06:13:03.256Z,34.6
2018-04-30T06:13:53.588Z,34.6
2018-04-30T06:14:43.633Z,34.8
2018-04-30T06:15:33.694Z,34.9
2018-04-30T06:16:23.202Z,34.9
2018-04-30T06:17:13.821Z,35
2018-04-30T06:18:03.361Z,35.1
2018-04-30T06:18:53.383Z,35.3
2018-04-30T06:19:44.092Z,35.3
2018-04-30T06:20:34.066Z,35.4
2018-04-30T06:21:23.572Z,35.6
2018-04-30T06:22:14.221Z,35.8
2018-04-30T06:23:03.729Z,35.8
2018-04-30T06:23:54.126Z,36
2018-04-30T06:24:44.431Z,36.1
2018-04-30T06:25:34.466Z,36.1
2018-04-30T06:26:24.553Z,36.3
2018-04-30T06:27:13.847Z,36.3
2018-04-30T06:28:04.391Z,36.3
2018-04-30T06:28:54.485Z,36.4
2018-04-30T06:29:44.218Z,36.4
2018-04-30T06:30:34.568Z,36.4
2018-04-30T06:31:23.804Z,36.4
2018-04-30T06:32:14.705Z,36.5
2018-04-30T06:33:04.759Z,36.5
2018-04-30T06:33:55.120Z,36.5
2018-04-30T06:34:44.366Z,36.5
2018-04-30T06:35:35.216Z,36.6
2018-04-30T06:36:24.771Z,36.6
2018-04-30T06:37:14.799Z,36.8
2018-04-30T06:38:05.430Z,36.9
2018-04-30T06:38:55.259Z,37.2
2018-04-30T06:39:45.276Z,37.4
2018-04-30T06:40:35.079Z,37.6
2018-04-30T06:41:25.684Z,37.8
2018-04-30T06:42:15.174Z,38
2018-04-30T06:43:05.531Z,38.2
2018-04-30T06:43:55.086Z,38.4
2018-04-30T06:44:45.936Z,38.6
2018-04-30T06:45:34.844Z,38.7
2018-04-30T06:46:25.519Z,38.9
2018-04-30T06:47:15.884Z,39.1
2018-04-30T06:48:06.235Z,39.2
2018-04-30T06:48:55.796Z,39.3
2018-04-30T06:49:46.374Z,39.4
2018-04-30T06:50:35.677Z,39.6
2018-04-30T06:51:25.913Z,39.7
2018-04-30T06:52:16.271Z,39.8
2018-04-30T06:53:06.025Z,39.9
2018-04-30T06:53:56.381Z,40.1
2018-04-30T06:54:46.438Z,40.3
2018-04-30T06:55:36.303Z,40.4
2018-04-30T06:56:26.870Z,40.5
2018-04-30T06:57:16.123Z,40.7
2018-04-30T06:58:06.211Z,40.8
2018-04-30T06:58:56.349Z,40.9
2018-04-30T06:59:46.058Z,41.1
2018-04-30T07:00:36.418Z,41.2
2018-04-30T07:01:26.655Z,41.3
2018-04-30T07:02:17.029Z,41.3
2018-04-30T07:03:07.381Z,41.4
2018-04-30T07:03:57.204Z,41.4
2018-04-30T07:04:46.951Z,41.4
2018-04-30T07:05:37.282Z,41.5
2018-04-30T07:06:27.693Z,41.5
2018-04-30T07:07:17.172Z,41.5
2018-04-30T07:08:07.226Z,41.6
2018-04-30T07:08:57.807Z,41.7
2018-04-30T07:09:48.010Z,41.8
2018-04-30T07:10:37.687Z,41.9
2018-04-30T07:11:28.029Z,42.1
2018-04-30T07:12:17.827Z,42.2
2018-04-30T07:13:07.904Z,42.4
2018-04-30T07:13:58.254Z,42.6
2018-04-30T07:14:47.467Z,42.8
2018-04-30T07:15:38.356Z,42.9
2018-04-30T07:16:28.489Z,43.1
2018-04-30T07:17:18.279Z,43.3
2018-04-30T07:18:07.849Z,43.5
2018-04-30T07:18:58.053Z,43.6
2018-04-30T07:19:48.238Z,43.9
2018-04-30T07:20:38.721Z,44
2018-04-30T07:21:28.507Z,44.1
2018-04-30T07:22:18.325Z,44.3
2018-04-30T07:23:08.700Z,44.4
2018-04-30T07:23:58.716Z,44.4
2018-04-30T07:24:48.536Z,44.5
2018-04-30T07:25:38.854Z,44.6
2018-04-30T07:26:28.355Z,44.6
2018-04-30T07:27:19.251Z,44.6
2018-04-30T07:28:09.066Z,44.7
2018-04-30T07:28:58.558Z,44.7
2018-04-30T07:29:49.491Z,44.7
2018-04-30T07:30:39.251Z,44.7
2018-04-30T07:31:29.616Z,44.6
2018-04-30T07:32:19.687Z,44.7
2018-04-30T07:33:09.566Z,44.7
2018-04-30T07:33:59.323Z,44.7
2018-04-30T07:34:49.299Z,44.6
2018-04-30T07:35:40.014Z,44.6
2018-04-30T07:36:29.508Z,44.5
2018-04-30T07:37:19.769Z,44.4
2018-04-30T07:38:09.809Z,44.4
2018-04-30T07:38:59.763Z,44.4
2018-04-30T07:39:50.287Z,44.3
2018-04-30T07:40:39.195Z,44.3
2018-04-30T07:41:30.391Z,44.2
2018-04-30T07:42:19.925Z,44.2
2018-04-30T07:43:09.675Z,44.2
2018-04-30T07:44:00.586Z,44.1
2018-04-30T07:44:50.083Z,44.1
2018-04-30T07:45:40.162Z,44.1
2018-04-30T07:46:30.497Z,44.1
2018-04-30T07:47:20.281Z,44.1
2018-04-30T07:48:10.900Z,44.2
2018-04-30T07:49:00.137Z,44.4
2018-04-30T07:49:50.467Z,44.6
2018-04-30T07:50:41.177Z,44.9
2018-04-30T07:51:31.149Z,45.3
2018-04-30T07:52:20.706Z,45.6
2018-04-30T07:53:10.774Z,45.9
2018-04-30T07:54:01.347Z,46.1
2018-04-30T07:54:50.389Z,46.4
2018-04-30T07:55:41.499Z,46.6
2018-04-30T07:56:31.547Z,46.8
2018-04-30T07:57:22.192Z,47.1
2018-04-30T07:58:11.752Z,47.3
2018-04-30T07:59:01.477Z,47.5
2018-04-30T07:59:51.619Z,47.7
2018-04-30T08:00:41.321Z,47.9
2018-04-30T08:01:31.995Z,48.1
2018-04-30T08:02:21.499Z,48.3
2018-04-30T08:03:12.830Z,48.4
2018-04-30T08:04:02.152Z,48.6
2018-04-30T08:04:51.928Z,48.8
2018-04-30T08:05:41.986Z,48.9
2018-04-30T08:06:32.314Z,49.1
2018-04-30T08:07:22.150Z,49.3
2018-04-30T08:08:12.458Z,49.4
2018-04-30T08:09:02.463Z,49.6
2018-04-30T08:09:52.085Z,49.8
2018-04-30T08:10:42.367Z,50
2018-04-30T08:11:32.741Z,50.2
2018-04-30T08:12:22.248Z,50.4
2018-04-30T08:13:12.662Z,50.6
2018-04-30T08:14:02.676Z,50.7
2018-04-30T08:14:53.063Z,50.9
2018-04-30T08:15:42.867Z,51
2018-04-30T08:16:32.836Z,51.2
2018-04-30T08:17:22.654Z,51.3
2018-04-30T08:18:12.708Z,51.5
2018-04-30T08:19:02.773Z,51.6
2018-04-30T08:19:53.414Z,51.8
2018-04-30T08:21:33.072Z,52
2018-04-30T08:22:23.150Z,52.1
2018-04-30T08:23:13.400Z,52.1
2018-04-30T08:24:03.436Z,52.1
2018-04-30T08:24:53.516Z,52.2
2018-04-30T08:25:43.597Z,52.3
2018-04-30T08:26:32.822Z,52.3
2018-04-30T08:27:23.982Z,52.3
2018-04-30T08:28:14.043Z,52.3
2018-04-30T08:29:03.844Z,52.3
2018-04-30T08:29:53.947Z,52.3
2018-04-30T08:30:43.681Z,52.3
2018-04-30T08:31:34.028Z,52.3
2018-04-30T08:32:23.921Z,52.3
2018-04-30T08:33:13.872Z,52.3
2018-04-30T08:34:03.972Z,52.4
2018-04-30T08:34:54.094Z,52.5
2018-04-30T08:35:43.927Z,52.6
2018-04-30T08:36:35.152Z,52.8
2018-04-30T08:37:24.775Z,53
2018-04-30T08:38:14.123Z,53.2
2018-04-30T08:39:04.971Z,53.3
2018-04-30T08:39:54.455Z,53.5
2018-04-30T08:40:44.480Z,53.7
2018-04-30T08:41:34.607Z,53.9
2018-04-30T08:42:24.616Z,54
2018-04-30T08:43:15.022Z,54.2
2018-04-30T08:44:05.025Z,54.4
2018-04-30T08:44:55.100Z,54.5
2018-04-30T08:45:45.164Z,54.7
2018-04-30T08:46:34.948Z,54.9
2018-04-30T08:47:25.578Z,55
2018-04-30T08:48:15.091Z,55.2
2018-04-30T08:49:05.705Z,55.4
2018-04-30T08:49:55.758Z,55.5
2018-04-30T08:50:45.545Z,55.7
2018-04-30T08:51:35.043Z,55.8
2018-04-30T08:52:25.964Z,56
2018-04-30T08:53:15.023Z,56.1
2018-04-30T08:54:05.402Z,56.3
2018-04-30T08:54:54.289Z,56.4
2018-04-30T08:55:45.509Z,56.6
2018-04-30T08:56:35.471Z,56.7
2018-04-30T08:57:25.042Z,56.9
2018-04-30T08:58:15.890Z,57
2018-04-30T08:59:06.606Z,57.1
2018-04-30T08:59:56.261Z,57.3
2018-04-30T09:00:46.421Z,57.4
2018-04-30T09:01:35.862Z,57.6
2018-04-30T09:02:26.194Z,57.7
2018-04-30T09:03:16.821Z,57.9
2018-04-30T09:04:06.597Z,57.9
2018-04-30T09:04:56.917Z,58.1
2018-04-30T09:05:47.028Z,58.3
2018-04-30T09:06:37.098Z,58.4
2018-04-30T09:07:26.619Z,58.6
2018-04-30T09:08:16.674Z,58.8
2018-04-30T09:09:06.746Z,58.9
2018-04-30T09:09:57.341Z,59
2018-04-30T09:10:47.467Z,59.1
2018-04-30T09:11:36.939Z,59.3
2018-04-30T09:12:27.276Z,59.4
2018-04-30T09:13:17.364Z,59.6
2018-04-30T09:14:07.179Z,59.6
2018-04-30T09:14:57.982Z,59.8
2018-04-30T09:15:47.835Z,59.9
2018-04-30T09:16:37.910Z,60.1
2018-04-30T09:17:27.664Z,60.2
2018-04-30T09:18:17.752Z,60.4
2018-04-30T09:19:07.512Z,60.4
2018-04-30T09:19:57.556Z,60.6
2018-04-30T09:20:48.211Z,60.8
2018-04-30T09:21:38.257Z,60.9
2018-04-30T09:22:28.341Z,61.1
2018-04-30T09:23:17.528Z,61.2
2018-04-30T09:24:08.461Z,61.3
2018-04-30T09:24:58.616Z,61.4
2018-04-30T09:25:48.042Z,61.6
2018-04-30T09:26:38.363Z,61.7
2018-04-30T09:27:28.785Z,61.8
2018-04-30T09:28:19.617Z,61.9
2018-04-30T09:29:09.750Z,62
2018-04-30T09:29:58.910Z,62.2
2018-04-30T09:30:48.735Z,62.3
2018-04-30T09:31:38.808Z,62.5
2018-04-30T09:32:29.111Z,62.6
2018-04-30T09:33:18.642Z,62.8
2018-04-30T09:34:08.977Z,62.9
2018-04-30T09:34:58.730Z,62.9
2018-04-30T09:35:48.549Z,63.1
2018-04-30T09:36:39.484Z,63.2
2018-04-30T09:37:29.336Z,63.3
2018-04-30T09:38:18.836Z,63.4
2018-04-30T09:39:09.086Z,63.5
2018-04-30T09:39:59.712Z,63.6
2018-04-30T09:40:49.818Z,63.7
2018-04-30T09:41:39.016Z,63.8
2018-04-30T09:42:29.895Z,63.9
2018-04-30T09:43:19.724Z,63.9
2018-04-30T09:44:09.514Z,64.1
2018-04-30T09:44:59.832Z,64.1
2018-04-30T09:45:49.921Z,64.1
2018-04-30T09:46:39.969Z,64.1
2018-04-30T09:47:30.063Z,64.1
2018-04-30T09:48:20.111Z,64.2
2018-04-30T09:49:09.660Z,64.3
2018-04-30T09:50:00.237Z,64.3
2018-04-30T09:50:50.306Z,64.3
2018-04-30T09:51:40.379Z,64.3
2018-04-30T09:52:29.026Z,64.4
2018-04-30T09:53:20.791Z,64.5
2018-04-30T09:54:10.811Z,64.6
2018-04-30T09:55:00.634Z,64.7
2018-04-30T09:55:50.980Z,64.8
2018-04-30T09:56:40.777Z,64.8
2018-04-30T09:57:31.123Z,64.9
2018-04-30T09:58:21.245Z,64.9
2018-04-30T09:59:10.698Z,65.1
2018-04-30T10:00:00.773Z,65.1
2018-04-30T10:00:51.360Z,65
2018-04-30T10:01:41.157Z,65
2018-04-30T10:02:31.583Z,64.9
2018-04-30T10:03:21.619Z,64.8
2018-04-30T10:04:11.189Z,64.8
2018-04-30T10:05:01.712Z,64.9
2018-04-30T10:05:51.520Z,65
2018-04-30T10:06:41.578Z,65.1
2018-04-30T10:07:31.476Z,65.1
2018-04-30T10:08:21.716Z,65.1
2018-04-30T10:09:11.500Z,64.9
2018-04-30T10:10:01.819Z,64.8
2018-04-30T10:10:52.186Z,64.8
2018-04-30T10:11:41.991Z,64.6
2018-04-30T10:12:31.481Z,64.6
2018-04-30T10:13:22.097Z,64.6
2018-04-30T10:14:12.189Z,64.5
2018-04-30T10:15:02.034Z,64.5
2018-04-30T10:15:51.505Z,64.6
2018-04-30T10:16:42.127Z,64.7
2018-04-30T10:17:32.474Z,64.8
2018-04-30T10:18:22.888Z,64.9
2018-04-30T10:19:12.593Z,65
2018-04-30T10:20:01.302Z,65.1
2018-04-30T10:20:52.739Z,65.1
2018-04-30T10:21:43.138Z,65
2018-04-30T10:22:32.283Z,65
2018-04-30T10:23:23.706Z,65
2018-04-30T10:24:12.675Z,65.1
2018-04-30T10:25:01.979Z,65.1
2018-04-30T10:25:53.168Z,65.2
2018-04-30T10:26:43.190Z,65.3
2018-04-30T10:27:32.839Z,65.4
2018-04-30T10:28:23.003Z,65.4
2018-04-30T10:29:14.084Z,65.5
2018-04-30T10:30:03.237Z,65.5
2018-04-30T10:30:53.761Z,65.6
2018-04-30T10:31:44.796Z,65.6
2018-04-30T10:32:33.645Z,65.8
2018-04-30T10:33:23.420Z,65.8
2018-04-30T10:34:13.756Z,65.8
2018-04-30T10:35:03.855Z,65.8
2018-04-30T10:35:53.665Z,65.8
2018-04-30T10:36:43.998Z,65.8
2018-04-30T10:37:34.287Z,65.9
2018-04-30T10:38:24.116Z,66
2018-04-30T10:39:13.917Z,66.1
2018-04-30T10:40:04.231Z,66.2
2018-04-30T10:40:54.273Z,66.3
2018-04-30T10:41:44.645Z,66.3
2018-04-30T10:42:34.441Z,66.4
2018-04-30T10:43:23.946Z,66.4
2018-04-30T10:44:14.546Z,66.6
2018-04-30T10:45:04.913Z,66.6
2018-04-30T10:45:55.975Z,66.6
2018-04-30T10:46:44.489Z,66.7
2018-04-30T10:47:34.570Z,66.7
2018-04-30T10:48:25.159Z,66.6
2018-04-30T10:49:14.760Z,66.5
2018-04-30T10:50:04.483Z,66.4
2018-04-30T10:50:54.524Z,66.5
2018-04-30T10:51:45.606Z,66.6
2018-04-30T10:52:34.634Z,66.6
2018-04-30T10:53:25.555Z,66.5
2018-04-30T10:54:15.617Z,66.3
2018-04-30T10:55:05.436Z,66.3
2018-04-30T10:55:55.249Z,66.3
2018-04-30T10:56:45.526Z,66.4
2018-04-30T10:57:35.341Z,66.4
2018-04-30T10:58:25.509Z,66.3
2018-04-30T10:59:15.006Z,66.1
2018-04-30T11:00:05.267Z,66.1
2018-04-30T11:00:55.595Z,66
2018-04-30T11:01:45.139Z,66.1
2018-04-30T11:02:36.590Z,66.1
2018-04-30T11:03:26.083Z,66.1
2018-04-30T11:04:15.971Z,66.1
2018-04-30T11:05:05.679Z,66.1
2018-04-30T11:05:55.820Z,66
2018-04-30T11:06:46.155Z,65.9
2018-04-30T11:07:36.120Z,65.9
2018-04-30T11:08:26.788Z,65.9
2018-04-30T11:09:16.277Z,66
2018-04-30T11:10:06.363Z,66.1
2018-04-30T11:10:56.194Z,66.2
2018-04-30T11:11:46.460Z,66.3
2018-04-30T11:12:36.924Z,66.3
2018-04-30T11:13:26.041Z,66.3
2018-04-30T11:14:17.220Z,66.3
2018-04-30T11:15:07.292Z,66.2
2018-04-30T11:15:57.328Z,66.1
2018-04-30T11:16:46.835Z,66.2
2018-04-30T11:17:37.474Z,66.3
2018-04-30T11:18:27.259Z,66.2
2018-04-30T11:19:17.078Z,66.1
2018-04-30T11:20:07.144Z,66.1
2018-04-30T11:20:57.447Z,66.1
2018-04-30T11:21:47.530Z,66.1
2018-04-30T11:22:37.911Z,66
2018-04-30T11:23:27.423Z,65.9
2018-04-30T11:24:17.747Z,65.8
2018-04-30T11:25:08.084Z,65.7
2018-04-30T11:25:57.858Z,65.7
2018-04-30T11:26:47.652Z,65.7
2018-04-30T11:27:38.831Z,65.8
2018-04-30T11:28:28.092Z,65.8
2018-04-30T11:29:18.431Z,65.8
2018-04-30T11:30:07.935Z,65.8
2018-04-30T11:30:58.539Z,65.8
2018-04-30T11:31:47.762Z,65.8
2018-04-30T11:32:37.903Z,65.8
2018-04-30T11:33:28.239Z,65.8
2018-04-30T11:34:18.204Z,65.9
2018-04-30T11:35:08.998Z,65.9
2018-04-30T11:35:58.760Z,65.9
2018-04-30T11:36:49.155Z,66
2018-04-30T11:37:39.161Z,66.1
2018-04-30T11:38:28.917Z,66.2
2018-04-30T11:39:18.807Z,66.3
2018-04-30T11:40:09.583Z,66.4
2018-04-30T11:40:59.194Z,66.5
2018-04-30T11:41:49.200Z,66.6
2018-04-30T11:42:39.245Z,66.6
2018-04-30T11:43:29.333Z,66.6
2018-04-30T11:44:20.267Z,66.6
2018-04-30T11:45:09.511Z,66.6
2018-04-30T11:45:59.833Z,66.7
2018-04-30T11:46:49.636Z,66.7
2018-04-30T11:47:41.029Z,66.6
2018-04-30T11:48:28.881Z,66.6
2018-04-30T11:49:19.543Z,66.5
2018-04-30T11:50:09.879Z,66.4
2018-04-30T11:51:02.761Z,66.4
2018-04-30T11:51:49.221Z,66.3
2018-04-30T11:52:40.319Z,66.3
2018-04-30T11:53:29.268Z,66.3
2018-04-30T11:54:20.664Z,66.4
2018-04-30T11:55:10.283Z,66.4
2018-04-30T11:56:00.674Z,66.4
2018-04-30T11:56:50.131Z,66.3
2018-04-30T11:57:41.060Z,66.1
2018-04-30T11:58:30.816Z,66
2018-04-30T11:59:20.016Z,66.1
2018-04-30T12:00:10.086Z,66.1
2018-04-30T12:01:01.059Z,66.1
2018-04-30T12:01:50.503Z,66.1
2018-04-30T12:02:40.569Z,66.1
2018-04-30T12:03:30.389Z,66.1
2018-04-30T12:04:20.765Z,66.1
2018-04-30T12:05:10.760Z,66.1
2018-04-30T12:06:00.841Z,66.1
2018-04-30T12:06:50.687Z,66
2018-04-30T12:07:41.598Z,65.9
2018-04-30T12:08:31.388Z,65.9
2018-04-30T12:09:20.820Z,65.8
2018-04-30T12:10:11.965Z,65.8
2018-04-30T12:11:02.470Z,65.8
2018-04-30T12:11:51.915Z,65.7
2018-04-30T12:12:41.346Z,65.6
2018-04-30T12:13:32.977Z,65.6
2018-04-30T12:14:21.493Z,65.5
2018-04-30T12:15:12.177Z,65.5
2018-04-30T12:16:01.873Z,65.4
2018-04-30T12:16:54.029Z,65.4
2018-04-30T12:17:41.317Z,65.4
2018-04-30T12:18:32.193Z,65.3
2018-04-30T12:19:21.719Z,65.3
2018-04-30T12:20:13.354Z,65.2
2018-04-30T12:21:01.870Z,65.2
2018-04-30T12:21:52.482Z,65.1
2018-04-30T12:22:42.804Z,65.2
2018-04-30T12:23:33.757Z,65.2
2018-04-30T12:24:22.272Z,65.1
2018-04-30T12:25:12.952Z,65.1
2018-04-30T12:26:02.711Z,65.1
2018-04-30T12:26:51.917Z,65.1
2018-04-30T12:27:42.347Z,65.1
2018-04-30T12:28:32.922Z,65.1
2018-04-30T12:29:23.264Z,64.9
2018-04-30T12:30:13.051Z,64.9
2018-04-30T12:31:03.110Z,64.8
2018-04-30T12:31:53.165Z,64.8
2018-04-30T12:32:43.388Z,64.7
2018-04-30T12:33:35.075Z,64.6
2018-04-30T12:34:23.355Z,64.5
2018-04-30T12:35:13.741Z,64.4
2018-04-30T12:36:04.241Z,64.3
2018-04-30T12:36:53.587Z,64.3
2018-04-30T12:37:43.691Z,64.1
2018-04-30T12:38:33.521Z,64.1
2018-04-30T12:39:25.029Z,64
2018-04-30T12:40:13.613Z,64
2018-04-30T12:41:04.170Z,63.9
2018-04-30T12:41:53.695Z,63.8
2018-04-30T12:42:45.714Z,63.7
2018-04-30T12:43:34.404Z,63.6
2018-04-30T12:44:23.690Z,63.6
2018-04-30T12:45:14.255Z,63.6
2018-04-30T12:46:07.050Z,63.5
2018-04-30T12:46:54.664Z,63.4
2018-04-30T12:47:44.542Z,63.4
2018-04-30T12:48:34.581Z,63.3
2018-04-30T12:49:27.478Z,63.3
2018-04-30T12:50:14.918Z,63.2
2018-04-30T12:51:04.421Z,63.1
2018-04-30T12:51:54.787Z,63
2018-04-30T12:52:45.059Z,62.9
2018-04-30T12:53:35.172Z,62.8
2018-04-30T12:54:25.261Z,62.7
2018-04-30T12:55:15.052Z,62.6
2018-04-30T12:56:06.646Z,62.5
2018-04-30T12:56:55.462Z,62.4
2018-04-30T12:57:44.942Z,62.3
2018-04-30T12:58:35.360Z,62.2
2018-04-30T12:59:25.117Z,62.1
2018-04-30T13:00:15.141Z,61.9
2018-04-30T13:01:05.801Z,61.9
2018-04-30T13:01:59.405Z,61.8
2018-04-30T13:02:45.945Z,61.6
2018-04-30T13:03:35.395Z,61.6
2018-04-30T13:04:24.647Z,61.4
2018-04-30T13:05:16.208Z,61.3
2018-04-30T13:06:06.285Z,61.2
2018-04-30T13:06:55.762Z,61.1
2018-04-30T13:07:45.192Z,60.9
2018-04-30T13:08:36.105Z,60.6
2018-04-30T13:09:26.188Z,60
2018-04-30T13:10:15.924Z,59.4
2018-04-30T13:11:07.604Z,58.9
2018-04-30T13:11:56.051Z,58.3
2018-04-30T13:12:45.536Z,57.8
2018-04-30T13:13:36.858Z,57.3
2018-04-30T13:14:30.207Z,56.9
2018-04-30T13:15:16.498Z,56.4
2018-04-30T13:16:06.408Z,55.9
2018-04-30T13:16:57.017Z,55.6
2018-04-30T13:17:46.787Z,55.1
2018-04-30T13:18:36.604Z,54.7
2018-04-30T13:19:26.676Z,54.3
2018-04-30T13:20:16.432Z,53.9
2018-04-30T13:21:06.812Z,53.6
2018-04-30T13:21:56.902Z,53.2
2018-04-30T13:22:46.737Z,52.9
2018-04-30T13:23:37.552Z,52.5
2018-04-30T13:24:27.551Z,52.2
2018-04-30T13:26:07.255Z,51.6
2018-04-30T13:26:56.666Z,51.4
2018-04-30T13:27:46.970Z,51.1
2018-04-30T13:28:38.473Z,50.9
2018-04-30T13:29:27.414Z,50.6
2018-04-30T13:30:18.007Z,50.4
2018-04-30T13:31:06.972Z,50.2
2018-04-30T13:31:57.862Z,50
2018-04-30T13:32:47.972Z,49.8
2018-04-30T13:33:37.689Z,49.6
2018-04-30T13:34:28.074Z,49.4
2018-04-30T13:35:17.949Z,49.3
2018-04-30T13:36:07.619Z,49.1
2018-04-30T13:36:57.693Z,48.9
2018-04-30T13:37:48.594Z,48.8
2018-04-30T13:38:37.928Z,48.6
2018-04-30T13:39:28.158Z,48.5
2018-04-30T13:40:18.516Z,48.4
2018-04-30T13:41:08.871Z,48.2
2018-04-30T13:41:58.923Z,48.1
2018-04-30T13:42:49.005Z,47.9
2018-04-30T13:43:39.016Z,47.8
2018-04-30T13:44:28.840Z,47.7
2018-04-30T13:45:18.926Z,47.6
2018-04-30T13:46:08.973Z,47.4
2018-04-30T13:46:59.341Z,47.3
2018-04-30T13:47:49.066Z,47.1
2018-04-30T13:48:39.486Z,47
2018-04-30T13:49:29.243Z,46.9
2018-04-30T13:50:19.559Z,46.8
2018-04-30T13:51:09.095Z,46.7
2018-04-30T13:51:59.729Z,46.6
2018-04-30T13:52:48.958Z,46.4
2018-04-30T13:53:39.872Z,46.3
2018-04-30T13:54:29.447Z,46.3
2018-04-30T13:55:19.689Z,46.1
2018-04-30T13:56:09.201Z,46
2018-04-30T13:57:00.130Z,45.9
2018-04-30T13:57:50.235Z,45.8
2018-04-30T13:58:39.997Z,45.7
2018-04-30T13:59:29.225Z,45.6
2018-04-30T14:00:20.352Z,45.5
2018-04-30T14:01:09.313Z,45.5
2018-04-30T14:02:00.936Z,45.3
2018-04-30T14:02:50.295Z,45.3
2018-04-30T14:03:40.714Z,45.2
2018-04-30T14:04:30.445Z,45.1
2018-04-30T14:05:20.194Z,45
2018-04-30T14:06:10.847Z,44.9
2018-04-30T14:07:00.712Z,44.8
2018-04-30T14:07:50.107Z,44.8
2018-04-30T14:08:40.762Z,44.7
2018-04-30T14:09:31.257Z,44.6
2018-04-30T14:10:19.767Z,44.6
2018-04-30T14:11:10.951Z,44.5
2018-04-30T14:12:00.990Z,44.4
2018-04-30T14:12:51.089Z,44.3
2018-04-30T14:13:41.509Z,44.2
2018-04-30T14:14:31.486Z,44.2
2018-04-30T14:15:20.989Z,44.1
2018-04-30T14:16:12.031Z,44
2018-04-30T14:17:01.434Z,43.9
2018-04-30T14:17:51.726Z,43.9
2018-04-30T14:18:41.795Z,43.8
2018-04-30T14:19:31.912Z,43.7
2018-04-30T14:20:21.123Z,43.7
2018-04-30T14:21:11.768Z,43.6
2018-04-30T14:22:01.821Z,43.5
2018-04-30T14:22:52.159Z,43.4
2018-04-30T14:23:41.924Z,43.4
2018-04-30T14:24:31.712Z,43.4
2018-04-30T14:25:21.800Z,43.3
2018-04-30T14:26:11.879Z,43.3
2018-04-30T14:27:01.355Z,43.2
2018-04-30T14:27:52.556Z,43.1
2018-04-30T14:28:42.324Z,43.1
2018-04-30T14:29:31.837Z,43.1
2018-04-30T14:30:22.169Z,43
2018-04-30T14:31:11.132Z,42.9
2018-04-30T14:32:02.872Z,42.9
2018-04-30T14:32:52.116Z,42.8
2018-04-30T14:33:42.245Z,42.8
2018-04-30T14:34:32.209Z,42.7
2018-04-30T14:35:22.874Z,42.6
2018-04-30T14:36:13.216Z,42.6
2018-04-30T14:37:03.044Z,42.6
2018-04-30T14:37:53.096Z,42.5
2018-04-30T14:38:43.138Z,42.4
2018-04-30T14:39:33.287Z,42.4
2018-04-30T14:40:23.268Z,42.3
2018-04-30T14:41:12.766Z,42.3
2018-04-30T14:42:03.701Z,42.3
2018-04-30T14:42:53.468Z,42.2
2018-04-30T14:43:43.513Z,42.2
2018-04-30T14:44:34.707Z,42.1
2018-04-30T14:45:23.083Z,42.1
2018-04-30T14:46:13.682Z,42
2018-04-30T14:47:04.025Z,41.9
2018-04-30T14:47:54.111Z,41.9
2018-04-30T14:48:43.917Z,41.9
2018-04-30T14:49:33.967Z,41.8
2018-04-30T14:50:23.814Z,41.8
2018-04-30T14:51:14.347Z,41.7
2018-04-30T14:52:03.594Z,41.6
2018-04-30T14:52:53.925Z,41.6
2018-04-30T14:53:44.551Z,41.6
2018-04-30T14:54:34.370Z,41.5
2018-04-30T14:55:23.578Z,41.4
2018-04-30T14:56:14.506Z,41.4
2018-04-30T14:57:04.682Z,41.4
2018-04-30T14:57:54.330Z,41.3
2018-04-30T14:58:44.655Z,41.3
2018-04-30T14:59:35.023Z,41.2
2018-04-30T15:00:25.122Z,41.1
2018-04-30T15:01:14.326Z,41.1
2018-04-30T15:02:05.236Z,41.1
2018-04-30T15:02:54.439Z,41.1
2018-04-30T15:03:45.341Z,41
2018-04-30T15:04:35.135Z,40.9
2018-04-30T15:05:24.910Z,40.9
2018-04-30T15:06:15.387Z,40.8
2018-04-30T15:07:04.540Z,40.8
2018-04-30T15:07:55.419Z,40.8
2018-04-30T15:08:45.759Z,40.7
2018-04-30T15:09:35.257Z,40.7
2018-04-30T15:10:25.608Z,40.6
2018-04-30T15:11:15.474Z,40.6
2018-04-30T15:12:05.711Z,40.6
2018-04-30T15:12:55.535Z,40.5
2018-04-30T15:13:45.570Z,40.4
2018-04-30T15:14:36.011Z,40.4
2018-04-30T15:15:25.244Z,40.4
2018-04-30T15:16:15.491Z,40.3
2018-04-30T15:17:05.591Z,40.3
2018-04-30T15:17:56.227Z,40.3
2018-04-30T15:18:45.962Z,40.2
2018-04-30T15:19:36.434Z,40.2
2018-04-30T15:20:25.341Z,40.1
2018-04-30T15:21:16.171Z,40.1
2018-04-30T15:22:05.941Z,40.1
2018-04-30T15:22:56.560Z,40
2018-04-30T15:23:46.928Z,40
2018-04-30T15:24:36.453Z,40
2018-04-30T15:25:26.516Z,39.9
2018-04-30T15:26:16.846Z,39.9
2018-04-30T15:27:06.694Z,39.9
2018-04-30T15:27:56.689Z,39.8
2018-04-30T15:28:46.470Z,39.8
2018-04-30T15:29:36.511Z,39.8
2018-04-30T15:30:27.152Z,39.7
2018-04-30T15:31:17.255Z,39.7
2018-04-30T15:32:07.300Z,39.6
2018-04-30T15:32:57.375Z,39.6
2018-04-30T15:33:47.215Z,39.6
2018-04-30T15:34:37.766Z,39.6
2018-04-30T15:35:27.574Z,39.5
2018-04-30T15:36:18.004Z,39.5
2018-04-30T15:37:07.941Z,39.4
2018-04-30T15:37:57.750Z,39.4
2018-04-30T15:38:47.540Z,39.4
2018-04-30T15:39:38.176Z,39.4
2018-04-30T15:40:27.678Z,39.3
2018-04-30T15:41:17.463Z,39.3
2018-04-30T15:42:08.381Z,39.3
2018-04-30T15:42:58.446Z,39.3
2018-04-30T15:43:47.363Z,39.3
2018-04-30T15:44:38.003Z,39.2
2018-04-30T15:45:27.765Z,39.2
2018-04-30T15:46:18.405Z,39.1
2018-04-30T15:47:08.733Z,39.1
2018-04-30T15:47:58.578Z,39.1
2018-04-30T15:48:48.513Z,39.1
2018-04-30T15:49:38.408Z,39
2018-04-30T15:50:28.455Z,39
2018-04-30T15:51:19.182Z,39
2018-04-30T15:52:08.888Z,38.9
2018-04-30T15:52:58.383Z,38.9
2018-04-30T15:53:48.708Z,38.9
2018-04-30T15:54:38.824Z,38.9
2018-04-30T15:55:28.555Z,38.9
2018-04-30T15:56:19.475Z,38.8
2018-04-30T15:57:08.992Z,38.8
2018-04-30T15:57:59.931Z,38.8
2018-04-30T15:58:49.132Z,38.8
2018-04-30T15:59:39.468Z,38.7
2018-04-30T16:00:29.222Z,38.7
2018-04-30T16:01:19.618Z,38.6
2018-04-30T16:02:09.397Z,38.6
2018-04-30T16:02:59.972Z,38.6
2018-04-30T16:03:49.797Z,38.6
2018-04-30T16:04:39.584Z,38.6
2018-04-30T16:05:29.051Z,38.6
2018-04-30T16:06:20.061Z,38.5
2018-04-30T16:07:10.092Z,38.5
2018-04-30T16:08:00.134Z,38.5
2018-04-30T16:08:49.869Z,38.4
2018-04-30T16:09:39.947Z,38.4
2018-04-30T16:10:29.744Z,38.4
2018-04-30T16:11:19.799Z,38.4
2018-04-30T16:12:10.146Z,38.4
2018-04-30T16:13:00.606Z,38.3
2018-04-30T16:13:50.950Z,38.3
2018-04-30T16:14:40.899Z,38.3
2018-04-30T16:15:30.404Z,38.3
2018-04-30T16:16:21.081Z,38.3
2018-04-30T16:17:10.583Z,38.3
2018-04-30T16:18:00.899Z,38.3
2018-04-30T16:18:50.657Z,38.1
2018-04-30T16:19:40.799Z,38.2
2018-04-30T16:20:30.685Z,38.2
2018-04-30T16:21:21.224Z,38.1
2018-04-30T16:22:11.214Z,37.9
2018-04-30T16:23:01.283Z,37.9
2018-04-30T16:23:51.359Z,37.8
2018-04-30T16:24:40.812Z,37.8
2018-04-30T16:25:31.206Z,37.6